createdAt,value
2022-10-10T07:17:58.844Z,15.93
2022-10-10T07:19:00.213Z,16.18
2022-10-10T07:20:01.559Z,15.00
2022-10-10T07:21:04.170Z,15.40
2022-10-10T07:22:05.764Z,15.95
2022-10-10T07:23:07.142Z,16.15
2022-10-10T07:24:08.479Z,16.30
2022-10-10T07:25:09.802Z,16.60
2022-10-10T07:26:13.873Z,16.70
2022-10-10T07:47:11.361Z,15.13
2022-10-10T07:48:12.857Z,15.02
2022-10-10T07:49:14.308Z,14.93
2022-10-10T07:50:15.878Z,14.98
2022-10-10T07:51:17.689Z,14.92
2022-10-10T07:52:21.998Z,14.78
2022-10-10T07:53:24.022Z,14.81
2022-10-10T07:54:25.409Z,14.73
2022-10-10T08:13:52.601Z,15.48
2022-10-10T08:14:54.261Z,15.80
2022-10-10T08:15:55.613Z,16.10
2022-10-10T08:16:56.944Z,16.23
2022-10-10T08:17:58.332Z,15.94
2022-10-10T08:18:59.888Z,15.77
2022-10-10T08:20:01.415Z,15.71
2022-10-10T08:21:08.068Z,15.51
2022-10-10T08:22:09.416Z,15.60
2022-10-10T08:23:10.837Z,15.63
2022-10-10T08:24:12.238Z,15.95
2022-10-10T08:25:17.814Z,16.10
2022-10-10T08:26:20.032Z,16.59
2022-10-10T08:27:21.729Z,16.68
2022-10-10T08:28:23.897Z,16.53
2022-10-10T08:29:25.272Z,16.40
2022-10-10T08:30:26.784Z,16.42
2022-10-10T08:31:31.271Z,16.52
2022-10-10T08:32:32.604Z,16.78
2022-10-10T08:33:34.047Z,17.03
2022-10-10T08:34:35.381Z,17.85
2022-10-10T08:35:40.058Z,18.06
2022-10-10T08:36:41.817Z,18.21
2022-10-10T08:37:43.164Z,18.81
2022-10-10T08:38:45.124Z,18.95
2022-10-10T08:39:46.515Z,19.52
2022-10-10T08:40:50.557Z,18.81
2022-10-10T08:42:00.449Z,18.53
2022-10-10T08:43:06.408Z,18.83
2022-10-10T08:44:22.219Z,18.82
2022-10-10T08:45:27.261Z,18.14
2022-10-10T08:46:48.598Z,17.91
2022-10-10T08:48:00.070Z,17.79
2022-10-10T08:49:14.096Z,19.60
2022-10-10T08:50:21.428Z,20.74
2022-10-10T08:51:32.105Z,21.22
2022-10-10T08:52:50.569Z,21.15
2022-10-10T08:59:03.992Z,19.13
2022-10-10T09:00:12.752Z,19.03
2022-10-10T09:01:19.486Z,18.59
2022-10-10T09:02:43.762Z,18.14
2022-10-10T09:03:55.992Z,17.73
2022-10-10T09:05:00.566Z,17.46
2022-10-10T09:06:39.309Z,17.57
2022-10-10T09:08:01.919Z,18.98
2022-10-10T09:09:21.643Z,19.40
2022-10-10T09:10:49.676Z,18.84
2022-10-10T09:17:06.264Z,17.40
2022-10-10T09:18:24.202Z,17.87
2022-10-10T09:19:37.729Z,18.13
2022-10-10T09:20:51.652Z,17.67
2022-10-10T09:21:57.051Z,17.38
2022-10-10T09:29:36.986Z,18.79
2022-10-10T09:30:46.013Z,20.22
2022-10-10T09:31:56.201Z,21.16
2022-10-10T09:33:06.652Z,22.17
2022-10-10T09:34:20.183Z,23.07
2022-10-10T09:35:30.448Z,23.80
2022-10-10T09:36:35.640Z,23.48
2022-10-10T09:37:47.193Z,24.84
2022-10-10T09:38:53.858Z,25.18
2022-10-10T09:40:06.494Z,24.32
2022-10-10T09:47:55.746Z,25.85
2022-10-10T09:48:57.669Z,26.21
2022-10-10T09:49:59.368Z,25.67
2022-10-10T09:51:03.732Z,25.68
2022-10-10T09:52:28.868Z,24.50
2022-10-10T09:53:30.217Z,24.89
2022-10-10T09:54:31.596Z,23.22
2022-10-10T09:55:38.305Z,23.68
2022-10-10T09:56:55.454Z,24.07
2022-10-10T09:58:04.280Z,23.18
2022-10-10T09:59:05.719Z,24.13
2022-10-10T10:00:19.506Z,24.06
2022-10-10T10:01:25.696Z,25.14
2022-10-10T10:02:28.194Z,24.93
2022-10-10T10:03:32.646Z,24.62
2022-10-10T10:04:34.069Z,25.26
2022-10-10T10:05:35.696Z,26.56
2022-10-10T10:06:38.253Z,26.39
2022-10-10T10:07:47.744Z,25.64
2022-10-10T10:08:52.752Z,26.76
2022-10-10T10:09:58.076Z,26.30
2022-10-10T10:11:00.794Z,26.60
2022-10-10T10:12:05.034Z,26.12
2022-10-10T10:13:13.842Z,23.70
2022-10-10T10:14:26.294Z,23.41
2022-10-10T10:15:34.077Z,22.75
2022-10-10T10:16:38.659Z,24.70
2022-10-10T10:17:40.022Z,26.11
2022-10-10T10:18:47.522Z,25.30
2022-10-10T10:19:49.075Z,25.26
2022-10-10T10:21:08.280Z,25.87
2022-10-10T10:34:05.646Z,27.73
2022-10-10T10:35:32.064Z,28.90
2022-10-10T10:37:05.781Z,28.61
2022-10-10T10:38:44.817Z,27.93
2022-10-10T10:40:15.282Z,27.77
2022-10-10T10:41:38.229Z,26.48
2022-10-10T10:43:03.284Z,25.81
2022-10-10T10:44:34.965Z,26.16
2022-10-10T10:46:01.593Z,25.71
2022-10-10T10:47:14.076Z,27.20
2022-10-10T10:48:47.072Z,27.97
2022-10-10T10:50:20.461Z,29.09
2022-10-10T10:51:43.520Z,29.39
2022-10-10T10:52:56.992Z,29.03
2022-10-10T10:54:19.916Z,28.55
2022-10-10T10:55:33.170Z,28.41
2022-10-10T10:56:50.022Z,29.04
2022-10-10T11:00:26.214Z,28.41
2022-10-10T11:05:15.991Z,28.31
2022-10-10T11:05:29.502Z,29.19
2022-10-10T11:06:42.121Z,29.49
2022-10-10T11:07:54.964Z,29.80
2022-10-10T11:09:49.039Z,30.30
2022-10-10T11:11:29.320Z,30.74
2022-10-10T11:12:42.588Z,30.22
2022-10-10T11:13:58.393Z,30.45
2022-10-10T11:15:54.095Z,30.68
2022-10-10T11:16:55.269Z,30.59
2022-10-10T11:18:16.738Z,30.29
2022-10-10T11:19:32.461Z,27.97
2022-10-10T11:20:54.474Z,27.53
2022-10-10T11:22:09.584Z,25.80
2022-10-10T11:23:17.045Z,27.84
2022-10-10T11:24:32.736Z,28.80
2022-10-10T11:25:47.101Z,28.81
2022-10-10T11:26:54.118Z,29.22
2022-10-10T11:28:02.701Z,29.42
2022-10-10T11:29:19.918Z,29.91
2022-10-10T11:30:26.254Z,30.62
2022-10-10T11:31:36.553Z,29.21
2022-10-10T11:32:54.382Z,29.49
2022-10-10T11:40:42.649Z,29.88
2022-10-10T11:42:05.905Z,28.51
2022-10-10T11:43:16.659Z,28.47
2022-10-10T11:44:40.885Z,29.31
2022-10-10T11:45:51.092Z,28.50
2022-10-10T11:47:24.089Z,28.43
2022-10-10T11:48:42.310Z,26.47
2022-10-10T11:50:00.630Z,25.00
2022-10-10T11:57:49.954Z,24.85
2022-10-10T11:58:58.624Z,24.57
2022-10-10T12:00:07.536Z,24.99
2022-10-10T12:01:22.498Z,26.16
2022-10-10T12:02:32.585Z,26.72
2022-10-10T12:09:04.802Z,27.66
2022-10-10T12:10:10.925Z,28.42
2022-10-10T12:11:24.681Z,28.94
2022-10-10T12:12:54.209Z,29.07
2022-10-10T12:13:59.087Z,29.40
2022-10-10T12:21:16.912Z,28.41
2022-10-10T12:22:24.276Z,29.23
2022-10-10T12:23:31.288Z,29.41
2022-10-10T12:24:38.676Z,29.39
2022-10-10T12:25:46.177Z,29.54
2022-10-10T12:26:53.284Z,29.17
2022-10-10T12:28:23.655Z,29.48
2022-10-10T12:29:43.939Z,28.92
2022-10-10T12:30:57.095Z,29.04
2022-10-10T12:32:27.494Z,27.93
2022-10-10T12:33:28.838Z,28.34
2022-10-10T12:34:48.636Z,28.47
2022-10-10T12:35:50.082Z,28.00
2022-10-10T12:37:10.749Z,26.62
2022-10-10T12:38:16.481Z,27.48
2022-10-10T12:39:17.954Z,28.51
2022-10-10T12:40:21.619Z,28.79
2022-10-10T12:41:47.244Z,28.00
2022-10-10T12:42:49.066Z,28.19
2022-10-10T12:43:56.254Z,28.89
2022-10-10T12:44:57.817Z,28.90
2022-10-10T12:57:46.768Z,28.86
2022-10-10T12:58:49.660Z,29.45
2022-10-10T12:59:51.491Z,29.88
2022-10-10T13:00:54.544Z,29.71
2022-10-10T13:02:02.357Z,29.34
2022-10-10T13:03:12.037Z,29.96
2022-10-10T13:04:17.938Z,30.41
2022-10-10T13:05:25.655Z,30.37
2022-10-10T13:06:43.383Z,29.12
2022-10-10T13:07:51.040Z,29.67
2022-10-10T13:08:54.775Z,29.73
2022-10-10T13:10:06.407Z,29.73
2022-10-10T13:11:13.432Z,28.09
2022-10-10T13:12:20.602Z,28.19
2022-10-10T13:13:22.226Z,28.40
2022-10-10T13:14:25.821Z,29.29
2022-10-10T13:15:28.665Z,29.26
2022-10-10T13:16:33.989Z,29.70
2022-10-10T13:17:41.302Z,27.92
2022-10-10T13:18:49.901Z,27.38
2022-10-10T13:19:52.648Z,27.49
2022-10-10T13:20:55.973Z,28.78
2022-10-10T13:21:57.413Z,28.07
2022-10-10T13:23:02.457Z,28.60
2022-10-10T13:24:06.124Z,28.96
2022-10-10T13:25:11.362Z,29.42
2022-10-10T13:32:59.781Z,26.56
2022-10-10T13:34:05.076Z,26.33
2022-10-10T13:35:14.463Z,25.62
2022-10-10T13:36:21.240Z,25.90
2022-10-10T13:37:23.135Z,26.60
2022-10-10T13:38:26.009Z,27.15
2022-10-10T13:39:29.797Z,27.10
2022-10-10T13:40:31.349Z,27.06
2022-10-10T13:41:32.889Z,27.51
2022-10-10T13:42:37.128Z,27.89
2022-10-10T13:43:40.495Z,27.84
2022-10-10T13:50:05.895Z,26.03
2022-10-10T13:51:10.659Z,25.53
2022-10-10T13:52:23.692Z,25.27
2022-10-10T13:53:31.497Z,25.61
2022-10-10T13:54:38.303Z,25.19
2022-10-10T13:55:40.160Z,26.21
2022-10-10T13:56:41.845Z,25.76
2022-10-10T13:57:43.308Z,25.98
2022-10-10T13:58:53.687Z,25.95
2022-10-10T14:00:09.585Z,24.87
2022-10-10T14:01:29.487Z,25.80
2022-10-10T14:02:34.003Z,25.70
2022-10-10T14:03:35.661Z,25.95
2022-10-10T14:04:44.151Z,25.05
2022-10-10T14:05:46.645Z,25.22
2022-10-10T14:06:59.645Z,25.02
2022-10-10T14:08:01.055Z,25.33
2022-10-10T14:09:27.595Z,25.39
2022-10-10T14:10:35.837Z,25.38
2022-10-10T14:11:40.183Z,25.64
2022-10-10T14:12:54.442Z,26.33
2022-10-10T14:14:05.575Z,26.14
2022-10-10T14:15:29.799Z,25.65
2022-10-10T14:16:31.298Z,25.31
2022-10-10T14:17:32.636Z,25.16
2022-10-10T14:18:33.978Z,24.99
2022-10-10T14:19:35.341Z,24.78
2022-10-10T14:20:36.665Z,25.22
2022-10-10T14:21:38.105Z,25.04
2022-10-10T14:22:39.429Z,24.70
2022-10-10T14:23:40.854Z,24.98
2022-10-10T14:24:42.225Z,25.17
2022-10-10T14:25:46.656Z,24.60
2022-10-10T14:32:06.598Z,25.18
2022-10-10T14:33:16.484Z,24.94
2022-10-10T14:34:18.173Z,24.77
2022-10-10T14:35:19.582Z,24.71
2022-10-10T14:36:21.264Z,24.44
2022-10-10T14:37:26.703Z,24.31
2022-10-10T14:38:28.170Z,24.41
2022-10-10T14:39:33.348Z,24.55
2022-10-10T14:40:34.970Z,24.02
2022-10-10T14:41:36.293Z,24.66
2022-10-10T14:42:37.661Z,24.22
2022-10-10T14:43:43.439Z,24.26
2022-10-10T14:44:47.438Z,24.33
2022-10-10T14:45:50.394Z,24.58
2022-10-10T14:46:51.804Z,24.55
2022-10-10T14:47:53.243Z,24.66
2022-10-10T14:48:54.656Z,24.67
2022-10-10T14:49:57.434Z,24.94
2022-10-10T14:50:58.853Z,25.18
2022-10-10T14:52:01.414Z,25.27
2022-10-10T14:53:03.841Z,25.30
2022-10-10T14:54:09.838Z,24.78
2022-10-10T15:02:02.762Z,25.74
2022-10-10T15:03:04.324Z,26.02
2022-10-10T15:04:05.725Z,26.09
2022-10-10T15:05:07.490Z,26.00
2022-10-10T15:06:11.387Z,25.84
2022-10-10T15:07:14.416Z,25.66
2022-10-10T15:08:21.646Z,25.24
2022-10-10T15:09:40.519Z,24.73
2022-10-10T15:10:44.215Z,24.09
2022-10-10T15:11:45.570Z,23.96
2022-10-10T15:12:47.059Z,23.76
2022-10-10T15:13:48.436Z,24.34
2022-10-10T15:14:49.920Z,25.01
2022-10-10T15:15:51.241Z,24.99
2022-10-10T15:16:52.885Z,25.48
2022-10-10T15:17:54.492Z,25.39
2022-10-10T15:18:56.151Z,25.81
2022-10-10T15:19:57.485Z,26.08
2022-10-10T15:20:59.214Z,25.93
2022-10-10T15:22:00.783Z,25.31
2022-10-10T15:23:07.057Z,24.82
2022-10-10T15:24:11.489Z,25.16
2022-10-10T15:25:12.932Z,25.14
2022-10-10T15:26:14.279Z,25.09
2022-10-10T15:27:15.728Z,25.08
2022-10-10T15:28:17.176Z,25.10
2022-10-10T15:29:18.797Z,24.92
2022-10-10T15:30:20.299Z,24.11
2022-10-10T15:43:07.798Z,25.26
2022-10-10T15:44:18.884Z,24.68
2022-10-10T15:45:37.293Z,24.89
2022-10-10T15:46:43.180Z,25.03
2022-10-10T15:47:46.666Z,24.83
2022-10-10T15:48:48.200Z,24.75
2022-10-10T15:49:49.758Z,24.83
2022-10-10T15:50:51.568Z,23.86
2022-10-10T15:51:53.126Z,23.69
2022-10-10T15:52:54.549Z,23.57
2022-10-10T15:53:58.158Z,23.29
2022-10-10T15:54:59.609Z,22.87
2022-10-10T15:56:01.146Z,22.96
2022-10-10T15:57:02.722Z,22.97
2022-10-10T15:58:04.072Z,22.80
2022-10-10T15:59:05.832Z,22.50
2022-10-10T16:00:08.049Z,22.46
2022-10-10T16:01:18.108Z,22.36
2022-10-10T16:02:19.519Z,22.62
2022-10-10T16:03:20.881Z,22.71
2022-10-10T16:04:22.582Z,22.77
2022-10-10T16:05:27.730Z,22.99
2022-10-10T16:06:32.209Z,22.65
2022-10-10T16:13:04.461Z,21.82
2022-10-10T16:14:05.790Z,22.08
2022-10-10T16:15:07.760Z,22.01
2022-10-10T16:16:11.195Z,21.88
2022-10-10T16:17:12.543Z,21.85
2022-10-10T16:18:18.082Z,21.72
2022-10-10T16:19:19.633Z,21.65
2022-10-10T16:20:21.053Z,21.50
2022-10-10T16:21:24.371Z,21.43
2022-10-10T16:22:25.801Z,21.40
2022-10-10T16:23:30.745Z,21.26
2022-10-10T16:24:32.098Z,21.18
2022-10-10T16:25:33.431Z,21.10
2022-10-10T16:26:36.786Z,21.02
2022-10-10T16:27:38.340Z,20.93
2022-10-10T16:28:40.615Z,20.87
2022-10-10T16:29:42.228Z,20.79
2022-10-10T16:30:43.644Z,20.14
2022-10-10T16:37:05.682Z,19.75
2022-10-10T16:38:07.097Z,19.66
2022-10-10T16:39:08.554Z,19.66
2022-10-10T16:40:10.308Z,19.50
2022-10-10T16:41:29.151Z,19.03
2022-10-10T16:42:35.762Z,19.24
2022-10-10T16:43:38.449Z,19.27
2022-10-10T16:44:44.171Z,19.32
2022-10-10T16:45:46.076Z,19.36
2022-10-10T16:46:47.489Z,19.35
2022-10-10T16:47:48.940Z,19.00
2022-10-10T16:48:50.757Z,19.19
2022-10-10T16:49:52.219Z,19.14
2022-10-10T16:50:53.601Z,19.22
2022-10-10T16:51:54.968Z,19.15
2022-10-10T16:52:56.521Z,18.99
2022-10-10T16:54:01.800Z,19.02
2022-10-10T16:55:07.712Z,19.02
2022-10-10T16:56:13.943Z,19.01
2022-10-10T16:57:16.149Z,18.97
2022-10-10T16:58:18.857Z,18.89
2022-10-10T16:59:20.210Z,18.78
2022-10-10T17:00:21.785Z,18.65
2022-10-10T17:07:03.832Z,18.61
2022-10-10T17:08:05.341Z,18.51
2022-10-10T17:09:08.304Z,18.42
2022-10-10T17:10:10.459Z,18.43
2022-10-10T17:11:14.688Z,18.46
2022-10-10T17:12:16.206Z,18.36
2022-10-10T17:20:09.506Z,18.02
2022-10-10T17:21:13.793Z,18.00
2022-10-10T17:22:15.989Z,17.91
2022-10-10T17:23:17.410Z,17.88
2022-10-10T17:24:18.785Z,17.83
2022-10-10T17:25:23.140Z,17.84
2022-10-10T17:26:26.078Z,17.89
2022-10-10T17:27:27.498Z,17.92
2022-10-10T17:28:28.919Z,17.82
2022-10-10T17:29:30.686Z,17.70
2022-10-10T17:30:32.045Z,17.79
2022-10-10T17:37:05.171Z,17.62
2022-10-10T17:38:27.671Z,17.60
2022-10-10T17:39:28.374Z,17.69
